createdAt,value
2018-12-21T00:00:20.566Z,7.74
2018-12-21T00:01:20.537Z,7.64
2018-12-21T00:02:20.512Z,7.61
2018-12-21T00:03:20.489Z,7.64
2018-12-21T00:04:20.467Z,7.64
2018-12-21T00:05:20.442Z,7.64
2018-12-21T00:06:20.420Z,7.64
2018-12-21T00:07:20.396Z,7.64
2018-12-21T00:08:20.375Z,7.80
2018-12-21T00:09:20.353Z,7.80
2018-12-21T00:10:20.329Z,7.68
2018-12-21T00:11:20.306Z,7.67
2018-12-21T00:12:20.282Z,7.68
2018-12-21T00:13:20.259Z,7.71
2018-12-21T00:14:20.235Z,7.68
2018-12-21T00:15:20.217Z,7.71
2018-12-21T00:16:20.188Z,7.71
2018-12-21T00:17:20.167Z,7.72
2018-12-21T00:18:20.141Z,7.72
2018-12-21T00:19:20.121Z,7.75
2018-12-21T00:20:20.115Z,7.71
2018-12-21T00:21:21.965Z,7.74
2018-12-21T00:22:20.052Z,7.69
2018-12-21T00:23:20.044Z,7.68
2018-12-21T00:24:20.004Z,7.68
2018-12-21T00:25:19.983Z,7.64
2018-12-21T00:26:19.955Z,7.69
2018-12-21T00:27:19.949Z,7.69
2018-12-21T00:28:19.910Z,7.69
2018-12-21T00:29:19.885Z,7.72
2018-12-21T00:30:19.862Z,7.72
2018-12-21T00:31:19.840Z,7.72
2018-12-21T00:32:19.816Z,7.77
2018-12-21T00:33:19.794Z,7.83
2018-12-21T00:34:19.769Z,7.75
2018-12-21T00:35:19.744Z,7.74
2018-12-21T00:36:19.724Z,7.63
2018-12-21T00:37:19.704Z,7.63
2018-12-21T00:38:19.692Z,7.67
2018-12-21T00:39:19.656Z,7.68
2018-12-21T00:40:19.632Z,7.64
2018-12-21T00:41:19.609Z,7.69
2018-12-21T00:42:19.585Z,7.74
2018-12-21T00:43:19.561Z,7.68
2018-12-21T00:44:19.537Z,7.74
2018-12-21T00:45:19.512Z,7.72
2018-12-21T00:46:19.490Z,7.72
2018-12-21T00:47:19.468Z,7.79
2018-12-21T00:48:19.444Z,7.83
2018-12-21T00:49:19.419Z,7.77
2018-12-21T00:50:19.396Z,7.71
2018-12-21T00:51:19.375Z,7.74
2018-12-21T00:52:19.361Z,7.80
2018-12-21T00:53:19.328Z,7.75
2018-12-21T00:54:19.307Z,7.75
2018-12-21T00:55:19.288Z,7.72
2018-12-21T00:56:19.259Z,7.74
2018-12-21T00:57:19.302Z,7.71
2018-12-21T00:58:19.212Z,7.75
2018-12-21T00:59:19.187Z,7.80
2018-12-21T01:00:19.166Z,7.83
2018-12-21T01:01:19.141Z,7.77
2018-12-21T01:02:19.122Z,7.86
2018-12-21T01:03:19.095Z,7.83
2018-12-21T01:04:19.073Z,7.83
2018-12-21T01:05:19.047Z,7.83
2018-12-21T01:06:19.025Z,7.86
2018-12-21T01:07:19.010Z,7.86
2018-12-21T01:08:18.980Z,7.80
2018-12-21T01:09:18.963Z,7.79
2018-12-21T01:10:18.934Z,7.82
2018-12-21T01:11:18.909Z,7.75
2018-12-21T01:12:18.885Z,7.80
2018-12-21T01:13:18.870Z,7.75
2018-12-21T01:14:18.842Z,7.85
2018-12-21T01:15:18.817Z,7.77
2018-12-21T01:16:18.793Z,7.83
2018-12-21T01:17:18.777Z,7.80
2018-12-21T01:18:18.757Z,7.86
2018-12-21T01:19:18.731Z,7.85
2018-12-21T01:20:18.701Z,7.80
2018-12-21T01:21:18.676Z,7.82
2018-12-21T01:22:18.653Z,7.87
2018-12-21T01:23:18.629Z,7.80
2018-12-21T01:24:18.605Z,7.83
2018-12-21T01:25:18.585Z,7.83
2018-12-21T01:26:18.561Z,7.83
2018-12-21T01:27:18.535Z,7.83
2018-12-21T01:28:18.513Z,7.86
2018-12-21T01:29:18.491Z,7.92
2018-12-21T01:30:18.467Z,7.92
2018-12-21T01:31:18.441Z,7.90
2018-12-21T01:32:18.422Z,7.86
2018-12-21T01:33:18.393Z,7.85
2018-12-21T01:34:18.372Z,7.92
2018-12-21T01:35:18.349Z,7.87
2018-12-21T01:36:18.325Z,7.87
2018-12-21T01:37:18.306Z,7.95
2018-12-21T01:38:18.279Z,7.95
2018-12-21T01:39:18.269Z,8.01
2018-12-21T01:40:18.240Z,7.93
2018-12-21T01:41:18.209Z,7.87
2018-12-21T01:42:18.185Z,7.87
2018-12-21T01:43:18.171Z,7.85
2018-12-21T01:44:18.140Z,7.82
2018-12-21T01:45:18.114Z,7.85
2018-12-21T01:46:18.105Z,7.83
2018-12-21T01:47:18.070Z,7.83
2018-12-21T01:48:18.045Z,7.89
2018-12-21T01:49:18.022Z,7.85
2018-12-21T01:50:18.001Z,7.83
2018-12-21T01:51:17.983Z,7.85
2018-12-21T01:52:17.953Z,7.89
2018-12-21T01:53:17.932Z,7.83
2018-12-21T01:54:17.910Z,7.77
2018-12-21T01:55:17.886Z,7.85
2018-12-21T01:56:17.862Z,7.86
2018-12-21T01:57:17.843Z,7.83
2018-12-21T01:58:17.814Z,7.75
2018-12-21T01:59:17.793Z,7.77
2018-12-21T02:00:17.773Z,7.80
2018-12-21T02:01:17.746Z,7.89
2018-12-21T02:02:17.720Z,7.83
2018-12-21T02:03:17.695Z,7.93
2018-12-21T02:04:17.687Z,7.86
2018-12-21T02:05:17.654Z,8.02
2018-12-21T02:06:17.634Z,7.87
2018-12-21T02:07:17.608Z,7.83
2018-12-21T02:08:17.582Z,7.89
2018-12-21T02:09:17.559Z,7.83
2018-12-21T02:10:17.533Z,7.83
2018-12-21T02:11:17.517Z,7.82
2018-12-21T02:12:17.526Z,7.87
2018-12-21T02:13:17.468Z,7.85
2018-12-21T02:14:17.441Z,7.89
2018-12-21T02:15:17.420Z,7.86
2018-12-21T02:16:17.397Z,7.83
2018-12-21T02:17:17.380Z,7.80
2018-12-21T02:18:17.358Z,7.80
2018-12-21T02:19:17.327Z,7.86
2018-12-21T02:20:17.305Z,7.82
2018-12-21T02:21:17.288Z,7.86
2018-12-21T02:22:17.262Z,7.87
2018-12-21T02:23:17.235Z,7.89
2018-12-21T02:24:17.211Z,7.92
2018-12-21T02:25:17.187Z,7.85
2018-12-21T02:26:17.165Z,7.90
2018-12-21T02:27:17.143Z,7.95
2018-12-21T02:28:17.121Z,7.95
2018-12-21T02:29:17.097Z,7.92
2018-12-21T02:30:17.090Z,7.87
2018-12-21T02:31:17.050Z,7.93
2018-12-21T02:32:17.026Z,7.95
2018-12-21T02:33:17.002Z,7.95
2018-12-21T02:34:16.980Z,7.97
2018-12-21T02:35:16.960Z,7.98
2018-12-21T02:36:16.931Z,7.98
2018-12-21T02:37:16.910Z,7.93
2018-12-21T02:38:16.894Z,7.95
2018-12-21T02:39:16.865Z,8.04
2018-12-21T02:40:16.841Z,7.97
2018-12-21T02:41:16.820Z,8.01
2018-12-21T02:42:16.792Z,8.01
2018-12-21T02:43:16.773Z,7.93
2018-12-21T02:44:16.747Z,8.00
2018-12-21T02:45:16.723Z,7.95
2018-12-21T02:46:16.703Z,8.04
2018-12-21T02:47:16.678Z,8.01
2018-12-21T02:48:16.653Z,7.95
2018-12-21T02:49:16.628Z,7.97
2018-12-21T02:50:16.608Z,7.95
2018-12-21T02:51:16.589Z,8.05
2018-12-21T02:52:16.561Z,8.00
2018-12-21T02:53:16.540Z,8.00
2018-12-21T02:54:16.516Z,7.97
2018-12-21T02:55:16.490Z,8.01
2018-12-21T02:56:16.469Z,8.05
2018-12-21T02:57:16.445Z,8.07
2018-12-21T02:58:16.429Z,8.01
2018-12-21T02:59:16.399Z,8.11
2018-12-21T03:00:16.382Z,8.05
2018-12-21T03:01:16.356Z,8.10
2018-12-21T03:02:16.328Z,8.08
2018-12-21T03:03:16.313Z,8.10
2018-12-21T03:04:16.287Z,8.07
2018-12-21T03:05:16.260Z,8.07
2018-12-21T03:06:16.242Z,8.07
2018-12-21T03:07:16.215Z,8.10
2018-12-21T03:08:16.193Z,8.12
2018-12-21T03:09:16.178Z,8.11
2018-12-21T03:10:16.148Z,8.02
2018-12-21T03:11:16.119Z,8.05
2018-12-21T03:12:16.099Z,8.01
2018-12-21T03:13:16.072Z,8.00
2018-12-21T03:14:16.050Z,8.02
2018-12-21T03:15:16.027Z,8.00
2018-12-21T03:16:16.004Z,8.04
2018-12-21T03:17:15.989Z,8.02
2018-12-21T03:18:15.967Z,8.01
2018-12-21T03:19:15.934Z,8.01
2018-12-21T03:20:15.919Z,8.05
2018-12-21T03:21:15.892Z,8.04
2018-12-21T03:22:15.870Z,8.04
2018-12-21T03:23:15.847Z,8.02
2018-12-21T03:24:15.821Z,7.98
2018-12-21T03:25:15.798Z,8.05
2018-12-21T03:26:15.774Z,7.98
2018-12-21T03:27:15.751Z,7.97
2018-12-21T03:28:15.730Z,7.98
2018-12-21T03:29:15.708Z,7.98
2018-12-21T03:30:15.687Z,7.97
2018-12-21T03:31:15.663Z,8.00
2018-12-21T03:32:15.649Z,7.97
2018-12-21T03:33:15.616Z,7.98
2018-12-21T03:34:15.593Z,8.00
2018-12-21T03:35:15.567Z,7.95
2018-12-21T03:36:15.554Z,7.98
2018-12-21T03:37:15.530Z,7.98
2018-12-21T03:38:15.497Z,8.00
2018-12-21T03:39:15.476Z,7.95
2018-12-21T03:40:15.454Z,8.01
2018-12-21T03:41:15.429Z,8.01
2018-12-21T03:42:15.410Z,7.92
2018-12-21T03:43:15.383Z,7.90
2018-12-21T03:44:15.360Z,7.92
2018-12-21T03:45:15.336Z,7.90
2018-12-21T03:46:15.315Z,7.92
2018-12-21T03:47:15.292Z,7.92
2018-12-21T03:48:15.280Z,7.95
2018-12-21T03:49:15.249Z,7.97
2018-12-21T03:50:15.222Z,7.89
2018-12-21T03:51:15.200Z,7.89
2018-12-21T03:52:23.992Z,7.89
2018-12-21T03:53:15.151Z,7.93
2018-12-21T03:54:15.129Z,7.92
2018-12-21T03:55:15.108Z,7.95
2018-12-21T03:56:15.081Z,7.92
2018-12-21T03:57:15.064Z,7.82
2018-12-21T03:58:15.043Z,7.83
2018-12-21T03:59:15.015Z,7.82
2018-12-21T04:00:14.998Z,7.85
2018-12-21T04:01:14.965Z,7.82
2018-12-21T04:02:14.944Z,7.83
2018-12-21T04:03:14.923Z,7.82
2018-12-21T04:04:14.899Z,7.82
2018-12-21T04:05:14.873Z,7.90
2018-12-21T04:06:14.852Z,7.80
2018-12-21T04:07:14.831Z,7.80
2018-12-21T04:08:14.805Z,7.83
2018-12-21T04:09:14.784Z,7.86
2018-12-21T04:10:14.766Z,7.83
2018-12-21T04:11:14.735Z,7.89
2018-12-21T04:12:14.714Z,7.85
2018-12-21T04:13:14.694Z,7.89
2018-12-21T04:14:14.666Z,7.83
2018-12-21T04:15:14.641Z,7.87
2018-12-21T04:16:14.623Z,7.92
2018-12-21T04:17:14.593Z,7.86
2018-12-21T04:18:14.575Z,7.92
2018-12-21T04:19:14.551Z,7.92
2018-12-21T04:20:14.531Z,7.92
2018-12-21T04:21:14.503Z,7.86
2018-12-21T04:22:14.479Z,7.87
2018-12-21T04:23:14.456Z,7.95
2018-12-21T04:24:14.435Z,7.92
2018-12-21T04:25:14.410Z,7.86
2018-12-21T04:26:14.389Z,7.90
2018-12-21T04:27:14.364Z,7.86
2018-12-21T04:28:14.343Z,7.86
2018-12-21T04:29:14.318Z,7.87
2018-12-21T04:30:14.294Z,7.89
2018-12-21T04:31:14.274Z,7.92
2018-12-21T04:32:14.254Z,7.93
2018-12-21T04:33:14.235Z,7.89
2018-12-21T04:34:14.202Z,7.92
2018-12-21T04:35:14.178Z,8.00
2018-12-21T04:36:14.156Z,7.89
2018-12-21T04:37:14.154Z,7.93
2018-12-21T04:38:14.111Z,7.98
2018-12-21T04:39:14.088Z,7.92
2018-12-21T04:40:14.065Z,7.95
2018-12-21T04:41:14.039Z,7.95
2018-12-21T04:42:14.020Z,7.93
2018-12-21T04:43:13.992Z,7.93
2018-12-21T04:44:13.972Z,7.93
2018-12-21T04:45:13.945Z,7.93
2018-12-21T04:46:13.931Z,7.98
2018-12-21T04:47:13.902Z,8.02
2018-12-21T04:48:13.972Z,7.97
2018-12-21T04:49:13.864Z,7.98
2018-12-21T04:50:13.830Z,8.00
2018-12-21T04:51:13.808Z,8.04
2018-12-21T04:52:13.787Z,7.97
2018-12-21T04:53:13.765Z,8.00
2018-12-21T04:54:13.739Z,8.00
2018-12-21T04:55:13.715Z,8.05
2018-12-21T04:56:13.694Z,8.07
2018-12-21T04:57:13.669Z,8.01
2018-12-21T04:58:13.652Z,7.98
2018-12-21T04:59:13.623Z,8.11
2018-12-21T05:00:13.601Z,8.10
2018-12-21T05:01:13.580Z,8.12
2018-12-21T05:02:13.555Z,8.15
2018-12-21T05:03:13.530Z,8.22
2018-12-21T05:04:19.889Z,8.20
2018-12-21T05:05:13.488Z,8.19
2018-12-21T05:06:13.462Z,8.16
2018-12-21T05:07:13.480Z,8.23
2018-12-21T05:08:13.416Z,8.26
2018-12-21T05:09:13.392Z,8.25
2018-12-21T05:10:13.367Z,8.26
2018-12-21T05:11:13.347Z,8.20
2018-12-21T05:12:13.323Z,8.25
2018-12-21T05:13:13.304Z,8.23
2018-12-21T05:14:13.278Z,8.25
2018-12-21T05:15:13.257Z,8.34
2018-12-21T05:16:13.233Z,8.22
2018-12-21T05:17:13.208Z,8.22
2018-12-21T05:18:13.182Z,8.34
2018-12-21T05:19:13.166Z,8.33
2018-12-21T05:20:13.141Z,8.34
2018-12-21T05:21:13.117Z,8.36
2018-12-21T05:22:13.091Z,8.34
2018-12-21T05:23:13.069Z,8.30
2018-12-21T05:24:13.047Z,8.29
2018-12-21T05:25:13.026Z,8.41
2018-12-21T05:26:13.009Z,8.34
2018-12-21T05:27:12.976Z,8.34
2018-12-21T05:28:12.954Z,8.41
2018-12-21T05:29:12.930Z,8.38
2018-12-21T05:30:12.916Z,8.38
2018-12-21T05:31:12.886Z,8.38
2018-12-21T05:32:12.904Z,8.36
2018-12-21T05:33:12.842Z,8.43
2018-12-21T05:34:12.819Z,8.40
2018-12-21T05:35:12.799Z,8.37
2018-12-21T05:36:12.771Z,8.38
2018-12-21T05:37:12.747Z,8.38
2018-12-21T05:38:12.722Z,8.34
2018-12-21T05:39:12.704Z,8.47
2018-12-21T05:40:12.675Z,8.41
2018-12-21T05:41:12.656Z,8.37
2018-12-21T05:42:12.633Z,8.38
2018-12-21T05:43:12.608Z,8.40
2018-12-21T05:44:12.585Z,8.41
2018-12-21T05:45:12.562Z,8.38
2018-12-21T05:46:12.538Z,8.37
2018-12-21T05:47:12.517Z,8.40
2018-12-21T05:48:12.493Z,8.38
2018-12-21T05:49:12.470Z,8.30
2018-12-21T05:50:12.449Z,8.37
2018-12-21T05:51:12.423Z,8.37
2018-12-21T05:52:12.400Z,8.37
2018-12-21T05:53:12.378Z,8.33
2018-12-21T05:54:12.354Z,8.29
2018-12-21T05:55:12.330Z,8.30
2018-12-21T05:56:12.307Z,8.30
2018-12-21T05:57:12.284Z,8.20
2018-12-21T05:58:12.260Z,8.22
2018-12-21T05:59:12.238Z,8.25
2018-12-21T06:00:12.215Z,8.25
2018-12-21T06:01:12.240Z,8.23
2018-12-21T06:02:12.171Z,8.29
2018-12-21T06:03:12.146Z,8.29
2018-12-21T06:04:12.128Z,8.30
2018-12-21T06:05:12.160Z,8.33
2018-12-21T06:06:12.076Z,8.38
2018-12-21T06:07:12.053Z,8.38
2018-12-21T06:08:12.032Z,8.40
2018-12-21T06:09:12.010Z,8.38
2018-12-21T06:10:11.987Z,8.37
2018-12-21T06:11:11.960Z,8.38
2018-12-21T06:12:11.940Z,8.45
2018-12-21T06:13:11.922Z,8.52
2018-12-21T06:14:11.892Z,8.55
2018-12-21T06:15:11.873Z,8.55
2018-12-21T06:16:11.846Z,8.59
2018-12-21T06:17:11.825Z,8.56
2018-12-21T06:18:11.801Z,8.58
2018-12-21T06:19:12.332Z,8.68
2018-12-21T06:20:11.755Z,8.52
2018-12-21T06:21:11.730Z,8.56
2018-12-21T06:22:11.709Z,8.58
2018-12-21T06:23:11.686Z,8.53
2018-12-21T06:24:11.664Z,8.68
2018-12-21T06:25:11.648Z,8.63
2018-12-21T06:26:11.616Z,8.61
2018-12-21T06:27:11.594Z,8.61
2018-12-21T06:28:11.570Z,8.55
2018-12-21T06:29:11.547Z,8.56
2018-12-21T06:30:11.523Z,8.59
2018-12-21T06:31:11.501Z,8.61
2018-12-21T06:32:11.481Z,8.63
2018-12-21T06:33:11.458Z,8.61
2018-12-21T06:34:11.433Z,8.58
2018-12-21T06:35:11.411Z,8.59
2018-12-21T06:36:11.397Z,8.58
2018-12-21T06:37:11.372Z,8.59
2018-12-21T06:38:11.344Z,8.61
2018-12-21T06:39:11.323Z,8.55
2018-12-21T06:40:11.297Z,8.50
2018-12-21T06:41:11.271Z,8.53
2018-12-21T06:42:11.249Z,8.50
2018-12-21T06:43:11.230Z,8.55
2018-12-21T06:44:11.203Z,8.53
2018-12-21T06:45:11.178Z,8.55
2018-12-21T06:46:14.228Z,8.45
2018-12-21T06:47:11.140Z,8.37
2018-12-21T06:48:11.111Z,8.55
2018-12-21T06:49:11.089Z,8.48
2018-12-21T06:50:11.064Z,8.44
2018-12-21T06:51:11.049Z,8.41
2018-12-21T06:52:11.019Z,8.41
2018-12-21T06:53:17.863Z,8.45
2018-12-21T06:54:10.974Z,8.43
2018-12-21T06:55:10.958Z,8.43
2018-12-21T06:56:10.931Z,8.43
2018-12-21T06:57:10.906Z,8.41
2018-12-21T06:58:10.883Z,8.41
2018-12-21T06:59:10.859Z,8.38
2018-12-21T07:00:10.837Z,8.41
2018-12-21T07:01:10.812Z,8.44
2018-12-21T07:02:10.793Z,8.53
2018-12-21T07:03:17.063Z,8.52
2018-12-21T07:04:10.752Z,8.44
2018-12-21T07:05:10.721Z,8.40
2018-12-21T07:06:10.708Z,8.50
2018-12-21T07:07:10.680Z,8.43
2018-12-21T07:08:10.653Z,8.40
2018-12-21T07:09:10.627Z,8.41
2018-12-21T07:10:10.605Z,8.48
2018-12-21T07:11:10.588Z,8.38
2018-12-21T07:12:10.656Z,8.37
2018-12-21T07:13:10.541Z,8.38
2018-12-21T07:14:10.515Z,8.33
2018-12-21T07:15:10.493Z,8.41
2018-12-21T07:16:10.484Z,8.38
2018-12-21T07:17:10.445Z,8.34
2018-12-21T07:18:10.424Z,8.30
2018-12-21T07:19:10.403Z,8.36
2018-12-21T07:20:10.377Z,8.23
2018-12-21T07:21:10.361Z,8.28
2018-12-21T07:22:10.329Z,8.30
2018-12-21T07:23:10.306Z,8.19
2018-12-21T07:24:10.282Z,8.20
2018-12-21T07:25:10.261Z,8.25
2018-12-21T07:26:10.250Z,8.22
2018-12-21T07:27:10.213Z,8.20
2018-12-21T07:28:10.191Z,8.26
2018-12-21T07:29:10.165Z,8.25
2018-12-21T07:30:10.144Z,8.22
2018-12-21T07:31:10.128Z,8.20
2018-12-21T07:32:10.107Z,8.22
2018-12-21T07:33:10.074Z,8.20
2018-12-21T07:34:10.054Z,8.19
2018-12-21T07:35:10.030Z,8.19
2018-12-21T07:36:10.013Z,8.23
2018-12-21T07:37:09.983Z,8.22
2018-12-21T07:38:09.959Z,8.16
2018-12-21T07:39:09.938Z,8.20
2018-12-21T07:40:09.913Z,8.19
2018-12-21T07:41:09.894Z,8.19
2018-12-21T07:42:09.867Z,8.23
2018-12-21T07:43:09.845Z,8.23
2018-12-21T07:44:09.827Z,8.22
2018-12-21T07:45:09.797Z,8.22
2018-12-21T07:46:09.776Z,8.23
2018-12-21T07:47:09.754Z,8.16
2018-12-21T07:48:09.729Z,8.18
2018-12-21T07:49:09.705Z,8.23
2018-12-21T07:50:09.691Z,8.20
2018-12-21T07:51:09.667Z,8.25
2018-12-21T07:52:09.677Z,8.18
2018-12-21T07:53:09.613Z,8.25
2018-12-21T07:54:09.593Z,8.19
2018-12-21T07:55:09.573Z,8.19
2018-12-21T07:56:09.545Z,8.29
2018-12-21T07:57:09.529Z,8.18
2018-12-21T07:58:09.503Z,8.29
2018-12-21T07:59:09.478Z,8.20
2018-12-21T08:00:09.459Z,8.22
2018-12-21T08:01:09.430Z,8.26
2018-12-21T08:02:09.409Z,8.22
2018-12-21T08:03:09.384Z,8.34
2018-12-21T08:04:09.362Z,8.23
2018-12-21T08:05:09.339Z,8.22
2018-12-21T08:06:09.323Z,8.25
2018-12-21T08:07:09.296Z,8.28
2018-12-21T08:08:09.269Z,8.36
2018-12-21T08:09:09.254Z,8.34
2018-12-21T08:10:09.222Z,8.37
2018-12-21T08:11:09.203Z,8.33
2018-12-21T08:12:09.178Z,8.34
2018-12-21T08:13:09.153Z,8.34
2018-12-21T08:14:09.236Z,8.29
2018-12-21T08:15:09.107Z,8.36
2018-12-21T08:16:09.083Z,8.37
2018-12-21T08:17:09.061Z,8.41
2018-12-21T08:18:09.039Z,8.37
2018-12-21T08:19:09.025Z,8.37
2018-12-21T08:20:08.993Z,8.34
2018-12-21T08:21:08.970Z,8.34
2018-12-21T08:22:08.947Z,8.37
2018-12-21T08:23:08.929Z,8.38
2018-12-21T08:24:08.901Z,8.37
2018-12-21T08:25:08.877Z,8.41
2018-12-21T08:26:08.854Z,8.40
2018-12-21T08:27:08.831Z,8.38
2018-12-21T08:28:08.822Z,8.44
2018-12-21T08:29:08.783Z,8.41
2018-12-21T08:30:08.761Z,8.45
2018-12-21T08:31:08.740Z,8.38
2018-12-21T08:32:08.718Z,8.43
2018-12-21T08:33:08.702Z,8.41
2018-12-21T08:34:08.670Z,8.41
2018-12-21T08:35:08.652Z,8.41
2018-12-21T08:36:08.630Z,8.48
2018-12-21T08:37:08.605Z,8.44
2018-12-21T08:38:08.578Z,8.47
2018-12-21T08:39:08.556Z,8.52
2018-12-21T08:40:08.533Z,8.50
2018-12-21T08:41:08.510Z,8.50
2018-12-21T08:42:08.493Z,8.55
2018-12-21T08:43:08.464Z,8.48
2018-12-21T08:44:08.443Z,8.53
2018-12-21T08:45:08.420Z,8.56
2018-12-21T08:46:08.403Z,8.66
2018-12-21T08:47:08.373Z,8.59
2018-12-21T08:48:08.351Z,8.63
2018-12-21T08:49:08.331Z,8.52
2018-12-21T08:50:08.310Z,8.58
2018-12-21T08:51:08.290Z,8.53
2018-12-21T08:52:08.262Z,8.58
2018-12-21T08:53:08.239Z,8.71
2018-12-21T08:54:08.220Z,8.58
2018-12-21T08:55:08.195Z,8.73
2018-12-21T08:56:08.169Z,8.70
2018-12-21T08:57:08.162Z,8.66
2018-12-21T08:58:08.130Z,8.65
2018-12-21T08:59:08.109Z,8.73
2018-12-21T09:00:08.085Z,8.65
2018-12-21T09:01:08.057Z,8.65
2018-12-21T09:02:08.032Z,8.79
2018-12-21T09:03:08.012Z,8.83
2018-12-21T09:04:07.992Z,8.84
2018-12-21T09:05:07.964Z,8.80
2018-12-21T09:06:07.942Z,8.84
2018-12-21T09:07:07.920Z,8.89
2018-12-21T09:08:07.892Z,8.87
2018-12-21T09:09:07.869Z,8.89
2018-12-21T09:10:07.849Z,8.83
2018-12-21T09:11:07.845Z,8.79
2018-12-21T09:12:07.802Z,8.77
2018-12-21T09:13:07.787Z,8.89
2018-12-21T09:14:07.765Z,8.84
2018-12-21T09:15:07.734Z,8.91
2018-12-21T09:16:07.729Z,8.91
2018-12-21T09:17:07.695Z,8.87
2018-12-21T09:18:07.666Z,8.87
2018-12-21T09:19:07.642Z,8.86
2018-12-21T09:20:07.629Z,8.84
2018-12-21T09:21:07.612Z,8.87
2018-12-21T09:22:07.574Z,8.89
2018-12-21T09:23:07.559Z,8.94
2018-12-21T09:24:07.530Z,8.91
2018-12-21T09:25:07.505Z,8.99
2018-12-21T09:26:07.488Z,8.96
2018-12-21T09:27:07.464Z,8.96
2018-12-21T09:28:07.470Z,8.96
2018-12-21T09:29:07.414Z,8.99
2018-12-21T09:30:07.390Z,9.01
2018-12-21T09:31:07.372Z,8.99
2018-12-21T09:32:07.346Z,8.98
2018-12-21T09:33:07.326Z,8.95
2018-12-21T09:34:07.298Z,8.95
2018-12-21T09:35:07.277Z,8.94
2018-12-21T09:36:07.254Z,8.94
2018-12-21T09:37:07.233Z,8.94
2018-12-21T09:38:07.209Z,9.01
2018-12-21T09:39:07.187Z,9.01
2018-12-21T09:40:07.168Z,8.95
2018-12-21T09:41:07.147Z,9.04
2018-12-21T09:42:07.117Z,9.04
2018-12-21T09:43:07.095Z,8.96
2018-12-21T09:44:07.088Z,8.99
2018-12-21T09:45:07.047Z,9.04
2018-12-21T09:46:07.027Z,8.99
2018-12-21T09:47:07.003Z,9.05
2018-12-21T09:48:06.992Z,9.05
2018-12-21T09:49:06.958Z,9.02
2018-12-21T09:50:06.940Z,8.98
2018-12-21T09:51:06.912Z,9.05
2018-12-21T09:52:06.899Z,9.02
2018-12-21T09:53:06.865Z,9.02
2018-12-21T09:54:10.025Z,9.11
2018-12-21T09:55:06.826Z,9.04
2018-12-21T09:56:06.797Z,9.11
2018-12-21T09:57:06.774Z,9.05
2018-12-21T09:58:06.755Z,9.08
2018-12-21T09:59:08.039Z,9.10
2018-12-21T10:00:06.709Z,9.11
2018-12-21T10:01:06.684Z,9.11
2018-12-21T10:02:06.661Z,9.08
2018-12-21T10:03:06.639Z,9.11
2018-12-21T10:04:06.615Z,9.13
2018-12-21T10:05:06.598Z,9.14
2018-12-21T10:06:06.573Z,9.13
2018-12-21T10:07:06.547Z,9.17
2018-12-21T10:08:06.525Z,9.14
2018-12-21T10:09:06.506Z,9.15
2018-12-21T10:10:06.489Z,9.11
2018-12-21T10:11:06.457Z,9.17
2018-12-21T10:12:06.446Z,9.15
2018-12-21T10:13:08.477Z,9.10
2018-12-21T10:14:06.389Z,9.11
2018-12-21T10:15:06.368Z,9.15
2018-12-21T10:16:06.344Z,9.20
2018-12-21T10:17:06.320Z,9.14
2018-12-21T10:18:06.298Z,9.23
2018-12-21T10:19:06.287Z,9.13
2018-12-21T10:20:06.254Z,9.14
2018-12-21T10:21:06.231Z,9.17
2018-12-21T10:22:06.213Z,9.10
2018-12-21T10:23:06.200Z,9.17
2018-12-21T10:24:06.174Z,9.18
2018-12-21T10:25:06.143Z,9.18
2018-12-21T10:26:06.122Z,9.20
2018-12-21T10:27:06.095Z,9.17
2018-12-21T10:28:06.072Z,9.24
2018-12-21T10:29:06.050Z,9.23
2018-12-21T10:30:06.026Z,9.23
2018-12-21T10:31:06.016Z,9.20
2018-12-21T10:32:05.982Z,9.26
2018-12-21T10:33:05.959Z,9.21
2018-12-21T10:34:05.944Z,9.28
2018-12-21T10:35:05.919Z,9.28
2018-12-21T10:36:05.896Z,9.26
2018-12-21T10:37:05.868Z,9.29
2018-12-21T10:38:05.855Z,9.29
2018-12-21T10:39:05.832Z,9.35
2018-12-21T10:40:05.803Z,9.36
2018-12-21T10:41:05.778Z,9.31
2018-12-21T10:42:05.766Z,9.26
2018-12-21T10:43:05.734Z,9.35
2018-12-21T10:44:05.720Z,9.33
2018-12-21T10:45:05.688Z,9.24
2018-12-21T10:46:05.669Z,9.39
2018-12-21T10:47:05.643Z,9.38
2018-12-21T10:48:05.623Z,9.40
2018-12-21T10:49:05.609Z,9.40
2018-12-21T10:50:05.576Z,9.42
2018-12-21T10:51:05.553Z,9.38
2018-12-21T10:52:05.540Z,9.47
2018-12-21T10:53:05.505Z,9.39
2018-12-21T10:54:05.487Z,9.42
2018-12-21T10:55:05.462Z,9.46
2018-12-21T10:56:05.438Z,9.48
2018-12-21T10:57:05.424Z,9.47
2018-12-21T10:58:05.405Z,9.50
2018-12-21T10:59:05.368Z,9.47
2018-12-21T11:00:05.349Z,9.48
2018-12-21T11:01:05.328Z,9.47
2018-12-21T11:02:05.306Z,9.46
2018-12-21T11:03:05.285Z,9.61
2018-12-21T11:04:05.269Z,9.58
2018-12-21T11:05:05.234Z,9.58
2018-12-21T11:06:05.219Z,9.58
2018-12-21T11:07:05.191Z,9.61
2018-12-21T11:08:05.174Z,9.61
2018-12-21T11:09:05.152Z,9.64
2018-12-21T11:10:05.122Z,9.69
2018-12-21T11:11:05.101Z,9.61
2018-12-21T11:12:05.081Z,9.69
2018-12-21T11:13:05.052Z,9.60
2018-12-21T11:14:05.037Z,9.72
2018-12-21T11:15:05.029Z,9.78
2018-12-21T11:16:04.987Z,9.78
2018-12-21T11:17:04.964Z,9.71
2018-12-21T11:18:04.940Z,9.68
2018-12-21T11:19:04.919Z,9.79
2018-12-21T11:20:04.902Z,9.84
2018-12-21T11:21:04.874Z,9.90
2018-12-21T11:22:04.850Z,9.90
2018-12-21T11:23:04.831Z,9.97
2018-12-21T11:24:04.807Z,10.01
2018-12-21T11:25:04.798Z,9.93
2018-12-21T11:26:04.768Z,9.93
2018-12-21T11:27:04.752Z,9.96
2018-12-21T11:28:04.718Z,10.01
2018-12-21T11:29:04.704Z,10.08
2018-12-21T11:30:04.678Z,9.99
2018-12-21T11:31:04.653Z,10.04
2018-12-21T11:32:04.630Z,10.02
2018-12-21T11:33:04.632Z,10.17
2018-12-21T11:34:04.594Z,10.11
2018-12-21T11:35:04.568Z,10.22
2018-12-21T11:36:04.541Z,10.30
2018-12-21T11:37:04.521Z,10.27
2018-12-21T11:38:04.498Z,10.34
2018-12-21T11:39:04.474Z,10.32
2018-12-21T11:40:04.467Z,10.30
2018-12-21T11:41:04.426Z,10.30
2018-12-21T11:42:04.405Z,10.33
2018-12-21T11:43:04.379Z,10.33
2018-12-21T11:44:04.359Z,10.41
2018-12-21T11:45:04.337Z,10.38
2018-12-21T11:46:04.314Z,10.40
2018-12-21T11:47:04.301Z,10.36
2018-12-21T11:48:04.271Z,10.44
2018-12-21T11:49:04.259Z,10.33
2018-12-21T11:50:04.230Z,10.45
2018-12-21T11:51:04.207Z,10.42
2018-12-21T11:52:04.179Z,10.40
2018-12-21T11:53:04.157Z,10.42
2018-12-21T11:54:04.139Z,10.45
2018-12-21T11:55:04.112Z,10.52
2018-12-21T11:56:04.098Z,10.53
2018-12-21T11:57:04.070Z,10.52
2018-12-21T11:58:04.053Z,10.51
2018-12-21T11:59:04.027Z,10.52
2018-12-21T12:00:04.001Z,10.51
2018-12-21T12:01:03.979Z,10.51
2018-12-21T12:02:03.962Z,10.51
2018-12-21T12:03:03.935Z,10.53
2018-12-21T12:04:03.914Z,10.60
2018-12-21T12:05:03.900Z,10.56
2018-12-21T12:06:03.883Z,10.68
2018-12-21T12:07:03.848Z,10.64
2018-12-21T12:08:03.827Z,10.59
2018-12-21T12:09:06.382Z,10.70
2018-12-21T12:10:03.779Z,10.74
2018-12-21T12:11:03.763Z,10.78
2018-12-21T12:12:03.745Z,10.84
2018-12-21T12:13:03.716Z,10.85
2018-12-21T12:14:03.703Z,10.84
2018-12-21T12:15:03.669Z,10.81
2018-12-21T12:16:03.658Z,10.85
2018-12-21T12:17:03.629Z,10.92
2018-12-21T12:18:03.602Z,10.96
2018-12-21T12:19:03.593Z,10.91
2018-12-21T12:20:03.563Z,11.00
2018-12-21T12:21:03.544Z,11.03
2018-12-21T12:22:03.527Z,11.03
2018-12-21T12:23:03.496Z,11.09
2018-12-21T12:24:03.471Z,11.07
2018-12-21T12:25:03.452Z,11.07
2018-12-21T12:26:03.431Z,11.11
2018-12-21T12:27:03.408Z,11.14
2018-12-21T12:28:03.385Z,11.19
2018-12-21T12:29:03.380Z,11.15
2018-12-21T12:30:03.340Z,11.21
2018-12-21T12:31:03.319Z,11.22
2018-12-21T12:32:03.295Z,11.36
2018-12-21T12:33:03.292Z,11.37
2018-12-21T12:34:03.253Z,11.36
2018-12-21T12:35:03.234Z,11.42
2018-12-21T12:36:03.209Z,11.44
2018-12-21T12:37:03.192Z,11.47
2018-12-21T12:38:03.260Z,11.46
2018-12-21T12:39:03.143Z,11.52
2018-12-21T12:40:03.119Z,11.44
2018-12-21T12:41:06.759Z,11.49
2018-12-21T12:42:03.820Z,11.49
2018-12-21T12:43:03.057Z,11.54
2018-12-21T12:44:03.032Z,11.61
2018-12-21T12:45:03.010Z,11.47
2018-12-21T12:46:02.994Z,11.47
2018-12-21T12:47:02.964Z,11.58
2018-12-21T12:48:02.948Z,11.61
2018-12-21T12:49:02.925Z,11.58
2018-12-21T12:50:02.904Z,11.58
2018-12-21T12:51:02.884Z,11.57
2018-12-21T12:52:02.864Z,11.60
2018-12-21T12:53:02.837Z,11.61
2018-12-21T12:54:02.813Z,11.73
2018-12-21T12:55:03.333Z,11.79
2018-12-21T12:56:05.143Z,11.76
2018-12-21T12:57:02.757Z,11.78
2018-12-21T12:58:02.725Z,11.76
2018-12-21T12:59:02.721Z,11.79
2018-12-21T13:00:02.693Z,11.80
2018-12-21T13:01:02.666Z,11.94
2018-12-21T13:02:02.647Z,12.01
2018-12-21T13:03:02.623Z,12.05
2018-12-21T13:04:02.597Z,11.99
2018-12-21T13:05:02.582Z,11.96
2018-12-21T13:06:02.554Z,12.07
2018-12-21T13:07:02.537Z,12.13
2018-12-21T13:08:02.526Z,12.10
2018-12-21T13:09:02.490Z,12.16
2018-12-21T13:10:02.474Z,12.13
2018-12-21T13:11:02.458Z,12.12
2018-12-21T13:12:02.425Z,12.10
2018-12-21T13:13:02.407Z,12.14
2018-12-21T13:14:02.384Z,12.13